Time;durP1;ratioP1;P1;durP2;ratioP2;P2;SDS_P1;SDS_P2;PMS_P1;PMS_P2;Temp;Humidity;BMP_temperature;BMP_pressure;BME280_temperature;BME280_humidity;BME280_pressure;Samples;Min_cycle;Max_cycle;Signal;HPM_P1;HPM_P2
2022/10/23 00:04:07;;;;;;;13.27;7.73;;;13.30;99.90;;;;;;5114505;28;20198;-58
2022/10/23 00:06:39;;;;;;;14.70;7.83;;;13.30;99.90;;;;;;5075371;28;20195;-57
2022/10/23 00:09:48;;;;;;;21.97;7.83;;;13.30;99.90;;;;;;5094271;28;20187;-57
2022/10/23 00:12:18;;;;;;;13.27;7.63;;;13.30;99.90;;;;;;5094352;28;20203;-57
2022/10/23 00:20:02;;;;;;;14.83;7.57;;;13.30;99.90;;;;;;5075792;28;20178;-57
2022/10/23 00:22:38;;;;;;;14.20;6.90;;;13.40;99.90;;;;;;5100808;28;20277;-57
2022/10/23 00:25:45;;;;;;;10.93;7.20;;;13.30;99.90;;;;;;5093773;28;20716;-57
2022/10/23 00:28:18;;;;;;;15.50;7.10;;;13.30;99.90;;;;;;5093768;28;20188;-57
2022/10/23 00:30:46;;;;;;;14.30;7.20;;;13.30;99.90;;;;;;5093670;28;20222;-56
2022/10/23 00:34:07;;;;;;;14.27;7.83;;;13.30;99.90;;;;;;5088773;28;20223;-57
2022/10/23 00:37:27;;;;;;;14.57;7.70;;;13.30;99.90;;;;;;5078717;28;20262;-57
2022/10/23 00:47:40;;;;;;;12.03;6.93;;;13.10;99.90;;;;;;5091042;28;20889;-57
2022/10/23 00:53:41;;;;;;;13.40;6.83;;;13.00;99.90;;;;;;5089611;28;20681;-58
2022/10/23 01:00:45;;;;;;;14.10;6.93;;;12.90;99.90;;;;;;5085041;28;20551;-57
2022/10/23 01:03:54;;;;;;;12.30;6.10;;;12.80;99.90;;;;;;5075375;28;20198;-58
2022/10/23 01:06:56;;;;;;;13.13;6.60;;;12.80;99.90;;;;;;5089404;28;20200;-57
2022/10/23 01:09:31;;;;;;;13.47;7.13;;;12.80;99.90;;;;;;5077782;28;20202;-57
2022/10/23 01:12:08;;;;;;;14.53;6.90;;;12.80;99.90;;;;;;5084639;28;20203;-57
2022/10/23 01:15:16;;;;;;;18.10;7.10;;;12.80;99.90;;;;;;5081299;28;20195;-57
2022/10/23 01:17:56;;;;;;;11.20;7.20;;;12.80;99.90;;;;;;5090185;28;20525;-58
2022/10/23 01:20:36;;;;;;;13.50;6.97;;;12.80;99.90;;;;;;5075041;28;20187;-58
2022/10/23 01:23:42;;;;;;;11.33;6.50;;;12.80;99.90;;;;;;5092449;28;20209;-57
2022/10/23 01:26:49;;;;;;;10.57;6.80;;;12.80;99.90;;;;;;5057937;28;20191;-58
2022/10/23 01:33:50;;;;;;;10.70;5.90;;;12.80;99.90;;;;;;5055521;28;20603;-58
2022/10/23 01:40:20;;;;;;;11.07;6.20;;;12.70;99.90;;;;;;5069398;28;20184;-58
2022/10/23 01:46:28;;;;;;;15.80;6.57;;;12.80;99.90;;;;;;5067738;28;20650;-59
2022/10/23 01:49:33;;;;;;;10.70;6.13;;;12.90;99.90;;;;;;5073683;28;20186;-58
2022/10/23 01:52:52;;;;;;;14.90;7.10;;;12.90;99.90;;;;;;5090313;28;20217;-59
2022/10/23 02:00:16;;;;;;;10.20;6.90;;;13.00;99.90;;;;;;5082826;28;20227;-59
2022/10/23 02:03:24;;;;;;;12.90;7.27;;;13.10;99.90;;;;;;5091245;28;20188;-58
2022/10/23 02:13:32;;;;;;;11.63;7.23;;;13.20;99.90;;;;;;5073152;28;20222;-58
2022/10/23 02:20:27;;;;;;;6.43;5.57;;;13.20;99.90;;;;;;5082634;28;20175;-58
2022/10/23 02:27:31;;;;;;;16.90;6.10;;;13.10;99.90;;;;;;5081389;28;20245;-59
2022/10/23 02:30:05;;;;;;;9.67;5.80;;;13.00;99.90;;;;;;5084679;28;20191;-59
2022/10/23 02:32:34;;;;;;;12.20;6.37;;;12.90;99.90;;;;;;5096373;28;20195;-60
2022/10/23 02:38:43;;;;;;;13.97;6.70;;;13.00;99.90;;;;;;5086599;28;20189;-60
2022/10/23 02:41:42;;;;;;;12.83;6.83;;;12.90;99.90;;;;;;5095965;28;20192;-60
2022/10/23 02:44:36;;;;;;;10.13;6.07;;;12.90;99.90;;;;;;5094008;28;20190;-59
2022/10/23 02:47:21;;;;;;;10.07;5.40;;;12.80;99.90;;;;;;5099815;28;20206;-59
2022/10/23 02:50:30;;;;;;;9.00;5.60;;;12.80;99.90;;;;;;5057881;28;20533;-59
2022/10/23 02:53:07;;;;;;;10.10;5.93;;;12.80;99.90;;;;;;5081664;28;20582;-60
2022/10/23 03:07:19;;;;;;;11.33;5.87;;;13.00;99.90;;;;;;5077924;28;20184;-59
2022/10/23 03:09:48;;;;;;;11.07;5.70;;;13.10;99.90;;;;;;5074173;28;20192;-59
2022/10/23 03:12:35;;;;;;;17.50;6.00;;;13.20;99.90;;;;;;5067334;28;20555;-59
2022/10/23 03:15:03;;;;;;;11.60;5.83;;;13.20;99.90;;;;;;5088398;28;20201;-58
2022/10/23 03:17:50;;;;;;;11.60;5.50;;;13.20;99.90;;;;;;5093396;28;20199;-59
2022/10/23 03:20:20;;;;;;;9.50;5.60;;;13.20;99.90;;;;;;5090842;28;20205;-59
2022/10/23 03:33:50;;;;;;;9.60;5.63;;;13.30;99.90;;;;;;5092155;28;20207;-58
2022/10/23 03:36:20;;;;;;;9.57;4.83;;;13.20;99.90;;;;;;5082168;28;20228;-60
2022/10/23 03:39:08;;;;;;;9.03;5.33;;;13.20;99.90;;;;;;5082497;28;20519;-59
2022/10/23 03:42:02;;;;;;;8.90;4.90;;;13.10;99.90;;;;;;5083697;28;20195;-60
2022/10/23 03:45:08;;;;;;;7.80;4.80;;;13.10;99.90;;;;;;5094661;28;20529;-59
2022/10/23 03:47:41;;;;;;;7.17;4.60;;;13.00;99.90;;;;;;5082418;28;20199;-59
2022/10/23 03:50:12;;;;;;;13.80;5.13;;;13.00;99.90;;;;;;5086612;28;20621;-59
2022/10/23 03:52:42;;;;;;;7.97;5.37;;;12.90;99.90;;;;;;5084427;28;20215;-59
2022/10/23 03:55:53;;;;;;;6.80;5.10;;;12.90;99.90;;;;;;5082262;28;20230;-58
2022/10/23 03:58:26;;;;;;;8.20;4.67;;;12.90;99.90;;;;;;5093257;28;20195;-59
2022/10/23 04:05:06;;;;;;;8.57;4.83;;;12.90;99.90;;;;;;5078722;28;20257;-59
2022/10/23 04:08:05;;;;;;;10.30;5.00;;;12.90;99.90;;;;;;5074702;28;20190;-59
2022/10/23 04:11:14;;;;;;;10.93;5.60;;;12.90;99.90;;;;;;5094519;28;20188;-60
2022/10/23 04:13:44;;;;;;;14.37;4.70;;;12.90;99.90;;;;;;5094319;28;20197;-59
2022/10/23 04:16:51;;;;;;;8.17;4.80;;;12.90;99.90;;;;;;5094310;28;20188;-58
2022/10/23 04:22:59;;;;;;;10.93;5.00;;;12.90;99.90;;;;;;5073569;28;20187;-59
2022/10/23 04:29:00;;;;;;;6.83;4.50;;;13.00;99.90;;;;;;5089161;28;20195;-59
2022/10/23 04:31:59;;;;;;;6.93;4.50;;;13.00;99.90;;;;;;5093718;28;20214;-59
2022/10/23 04:34:28;;;;;;;7.90;4.63;;;13.00;99.90;;;;;;5093236;28;20215;-59
2022/10/23 04:36:58;;;;;;;4.77;4.20;;;13.10;99.90;;;;;;5073508;28;20184;-59
2022/10/23 04:39:26;;;;;;;13.57;4.80;;;13.30;99.90;;;;;;5076299;28;20210;-59
2022/10/23 04:41:55;;;;;;;8.17;4.40;;;13.40;99.90;;;;;;5055746;28;20188;-58
2022/10/23 04:48:07;;;;;;;6.97;4.20;;;13.40;99.90;;;;;;5080377;28;20195;-59
2022/10/23 04:50:37;;;;;;;10.93;4.27;;;13.40;99.90;;;;;;5093184;28;20645;-58
2022/10/23 04:53:34;;;;;;;12.67;4.43;;;13.50;99.90;;;;;;5088205;28;20219;-59
2022/10/23 04:56:04;;;;;;;8.73;4.10;;;13.50;99.90;;;;;;5093497;28;20221;-59
2022/10/23 04:58:34;;;;;;;7.07;4.27;;;13.60;99.90;;;;;;5093100;28;20195;-59
2022/10/23 05:01:03;;;;;;;7.93;4.10;;;13.60;99.90;;;;;;5056212;28;20203;-59
2022/10/23 05:03:34;;;;;;;8.13;3.70;;;13.60;99.90;;;;;;5084371;28;20342;-59
2022/10/23 05:06:04;;;;;;;5.53;3.73;;;13.70;99.90;;;;;;5067931;28;20230;-59
2022/10/23 05:12:38;;;;;;;4.90;3.33;;;13.80;99.90;;;;;;5074876;28;20206;-58
2022/10/23 05:15:07;;;;;;;7.30;3.70;;;13.80;99.90;;;;;;5074866;28;20681;-58
2022/10/23 05:17:39;;;;;;;7.47;3.77;;;13.90;99.90;;;;;;5093314;28;20192;-58
2022/10/23 05:23:42;;;;;;;8.53;3.90;;;13.90;99.90;;;;;;5113288;28;20190;-58
2022/10/23 05:26:11;;;;;;;14.83;3.97;;;14.00;99.90;;;;;;5113353;28;20197;-58
2022/10/23 05:28:40;;;;;;;9.87;4.03;;;14.00;99.90;;;;;;5113326;28;20201;-58
2022/10/23 05:31:14;;;;;;;8.17;3.70;;;14.00;99.90;;;;;;5113329;28;20198;-58
2022/10/23 05:34:03;;;;;;;6.97;3.73;;;14.00;99.90;;;;;;5113157;28;20331;-58
2022/10/23 05:36:57;;;;;;;7.73;3.90;;;14.10;99.90;;;;;;5112975;28;20251;-59
2022/10/23 05:40:07;;;;;;;8.53;4.07;;;14.10;99.90;;;;;;5110103;27;20194;-58
2022/10/23 05:46:57;;;;;;;6.83;3.80;;;14.20;99.90;;;;;;5112859;28;20190;-58
2022/10/23 06:01:14;;;;;;;6.77;3.40;;;14.20;99.90;;;;;;5094599;28;20192;-58
2022/10/23 06:11:24;;;;;;;5.83;3.23;;;14.20;99.90;;;;;;5096624;28;20191;-58
2022/10/23 06:14:33;;;;;;;6.63;3.10;;;14.20;99.90;;;;;;5096582;28;20207;-58
2022/10/23 06:21:29;;;;;;;7.07;3.40;;;14.30;99.90;;;;;;5076133;28;20211;-58
2022/10/23 06:23:58;;;;;;;3.20;2.90;;;14.30;99.90;;;;;;5076126;28;20188;-58
2022/10/23 06:26:57;;;;;;;5.07;2.83;;;14.40;99.90;;;;;;5046199;28;20222;-59
2022/10/23 06:30:06;;;;;;;5.73;3.00;;;14.40;99.90;;;;;;5096320;28;20204;-58
2022/10/23 06:37:19;;;;;;;5.17;2.90;;;14.40;99.90;;;;;;5076333;28;20175;-58
2022/10/23 06:45:02;;;;;;;4.33;3.17;;;14.40;99.90;;;;;;5095420;28;20183;-57
2022/10/23 06:47:39;;;;;;;4.57;2.93;;;14.40;99.90;;;;;;5092584;28;20198;-58
2022/10/23 06:54:17;;;;;;;5.10;3.10;;;14.50;99.90;;;;;;5077670;28;20569;-58
2022/10/23 07:01:15;;;;;;;5.00;3.20;;;14.70;99.90;;;;;;5089858;28;20244;-58
2022/10/23 07:04:04;;;;;;;5.63;3.07;;;14.70;99.90;;;;;;5095596;28;20187;-58
2022/10/23 07:06:32;;;;;;;3.10;2.80;;;14.70;99.90;;;;;;5118320;27;20314;-59
2022/10/23 07:09:04;;;;;;;5.03;3.10;;;14.80;99.90;;;;;;5122465;27;20199;-58
2022/10/23 07:16:12;;;;;;;4.10;2.90;;;14.90;99.90;;;;;;5112736;28;20226;-58
2022/10/23 07:18:43;;;;;;;5.13;2.90;;;15.00;99.90;;;;;;5115649;28;20194;-58
2022/10/23 07:21:14;;;;;;;4.37;2.50;;;15.00;99.90;;;;;;5114866;28;20199;-58
2022/10/23 07:24:03;;;;;;;2.90;2.70;;;15.10;99.90;;;;;;5115336;28;20688;-58
2022/10/23 07:26:34;;;;;;;6.30;3.17;;;15.10;99.90;;;;;;5095356;28;20653;-58
2022/10/23 07:29:02;;;;;;;5.07;2.77;;;15.10;99.90;;;;;;5113001;27;20187;-58
2022/10/23 07:35:50;;;;;;;4.87;3.03;;;15.20;99.90;;;;;;5110634;27;20220;-59
2022/10/23 07:38:20;;;;;;;3.90;3.13;;;15.20;99.90;;;;;;5115522;27;20194;-58
2022/10/23 07:45:19;;;;;;;2.53;2.40;;;15.30;99.90;;;;;;5094992;28;20237;-58
2022/10/23 07:47:51;;;;;;;6.57;2.90;;;15.30;99.90;;;;;;5105656;28;20545;-58
2022/10/23 07:53:55;;;;;;;5.80;2.77;;;15.30;99.90;;;;;;5112631;28;20681;-58
2022/10/23 07:56:28;;;;;;;3.00;2.53;;;15.30;99.90;;;;;;5096135;28;20205;-58
2022/10/23 07:59:39;;;;;;;2.60;2.40;;;15.40;99.90;;;;;;5103199;28;20784;-58
2022/10/23 08:02:35;;;;;;;2.70;2.40;;;15.40;99.90;;;;;;5107719;28;20218;-58
2022/10/23 08:05:22;;;;;;;5.70;2.70;;;15.40;99.90;;;;;;5115055;28;20656;-59
2022/10/23 08:08:16;;;;;;;8.60;2.97;;;15.40;99.90;;;;;;5059584;28;20196;-58
2022/10/23 08:18:31;;;;;;;4.63;3.73;;;15.50;99.90;;;;;;5082282;28;20199;-59
2022/10/23 08:21:02;;;;;;;6.47;3.20;;;15.60;99.90;;;;;;5073973;28;20196;-58
2022/10/23 08:30:55;;;;;;;3.30;2.90;;;15.70;99.90;;;;;;5093262;28;20196;-58
2022/10/23 08:37:03;;;;;;;3.00;2.80;;;15.70;99.90;;;;;;5093379;28;20192;-58
2022/10/23 08:40:11;;;;;;;4.47;3.07;;;15.90;99.90;;;;;;5078036;28;20584;-58
2022/10/23 08:46:17;;;;;;;3.33;3.03;;;16.00;99.90;;;;;;5093734;28;20593;-57
2022/10/23 08:52:44;;;;;;;7.57;3.33;;;16.00;99.90;;;;;;5085077;28;20190;-58
2022/10/23 09:00:00;;;;;;;5.57;3.23;;;16.10;99.90;;;;;;5088770;28;20662;-58
2022/10/23 09:02:35;;;;;;;5.20;3.13;;;16.10;99.90;;;;;;5073022;28;20175;-57
2022/10/23 09:05:15;;;;;;;4.90;3.17;;;16.10;99.90;;;;;;5092191;28;20200;-57
2022/10/23 09:08:07;;;;;;;12.73;3.50;;;16.10;99.90;;;;;;5092821;28;20199;-57
2022/10/23 09:14:38;;;;;;;7.27;3.73;;;16.10;99.90;;;;;;5076463;28;20219;-58
2022/10/23 09:17:16;;;;;;;3.60;3.27;;;16.30;99.90;;;;;;5039440;28;20216;-57
2022/10/23 09:20:14;;;;;;;12.97;3.40;;;16.30;99.90;;;;;;5092719;28;20202;-57
2022/10/23 09:23:21;;;;;;;8.83;3.37;;;16.30;99.90;;;;;;5087310;28;20577;-57
2022/10/23 09:26:18;;;;;;;7.57;3.03;;;16.30;99.90;;;;;;5097758;28;20188;-56
2022/10/23 09:32:37;;;;;;;6.77;3.40;;;16.40;99.90;;;;;;5082261;28;20216;-57
2022/10/23 09:35:22;;;;;;;6.00;3.50;;;16.40;99.90;;;;;;5092319;28;20224;-57
2022/10/23 09:42:01;;;;;;;5.40;3.00;;;16.50;99.90;;;;;;5056939;28;20554;-57
2022/10/23 09:45:00;;;;;;;4.03;3.00;;;16.60;99.90;;;;;;5084373;28;20193;-57
2022/10/23 09:51:01;;;;;;;4.10;3.23;;;16.70;99.90;;;;;;5095383;28;20208;-57
2022/10/23 09:53:34;;;;;;;4.30;3.30;;;16.70;99.90;;;;;;5089677;28;20570;-57
2022/10/23 09:56:26;;;;;;;5.60;3.10;;;16.70;99.90;;;;;;5092021;28;20187;-57
2022/10/23 10:03:39;;;;;;;6.63;3.53;;;16.80;99.90;;;;;;5096108;28;20200;-58
2022/10/23 10:06:27;;;;;;;6.37;3.10;;;16.90;99.90;;;;;;5057138;28;20697;-57
2022/10/23 10:09:27;;;;;;;4.37;3.20;;;16.90;99.90;;;;;;5043640;28;20206;-58
2022/10/23 10:12:11;;;;;;;5.00;3.97;;;17.00;99.90;;;;;;5086980;28;20200;-57
2022/10/23 10:18:50;;;;;;;5.23;3.27;;;17.20;99.90;;;;;;5090743;28;20262;-57
2022/10/23 10:21:56;;;;;;;7.10;3.67;;;17.30;99.90;;;;;;5089908;28;20202;-57
2022/10/23 10:24:32;;;;;;;6.97;3.73;;;17.40;99.90;;;;;;5074102;28;20195;-58
2022/10/23 10:27:39;;;;;;;6.57;3.40;;;17.50;99.90;;;;;;5092222;28;20192;-58
2022/10/23 10:31:01;;;;;;;6.90;3.33;;;17.60;99.90;;;;;;5057548;28;20634;-57
2022/10/23 10:33:42;;;;;;;10.07;3.80;;;17.60;99.90;;;;;;5091596;28;20219;-57
2022/10/23 10:36:42;;;;;;;14.23;3.47;;;17.60;99.90;;;;;;5087689;28;20199;-58
2022/10/23 10:39:21;;;;;;;6.07;3.93;;;17.60;99.90;;;;;;5086707;28;20184;-57
2022/10/23 10:42:31;;;;;;;5.73;3.47;;;17.70;99.90;;;;;;5091737;28;20204;-58
2022/10/23 10:49:34;;;;;;;4.57;3.20;;;18.00;99.90;;;;;;5054776;28;20211;-58
2022/10/23 10:52:40;;;;;;;6.40;3.20;;;18.10;99.90;;;;;;5086293;28;20198;-57
2022/10/23 10:55:28;;;;;;;7.00;3.30;;;18.10;99.90;;;;;;5060793;28;20294;-58
2022/10/23 10:58:38;;;;;;;9.40;3.83;;;18.10;99.90;;;;;;5063062;28;20195;-57
2022/10/23 11:01:25;;;;;;;3.77;3.27;;;18.10;99.90;;;;;;5108821;28;20202;-57
2022/10/23 11:04:31;;;;;;;3.97;3.07;;;18.10;99.90;;;;;;5095714;28;20190;-57
2022/10/23 11:07:08;;;;;;;5.33;3.00;;;18.20;99.90;;;;;;5092918;28;20310;-57
2022/10/23 11:09:38;;;;;;;6.87;3.00;;;18.30;99.90;;;;;;5101321;28;20208;-57
2022/10/23 11:12:17;;;;;;;5.47;3.07;;;18.40;99.90;;;;;;5097237;28;20187;-58
2022/10/23 11:14:46;;;;;;;3.93;3.27;;;18.40;99.90;;;;;;5107382;28;20218;-57
2022/10/23 11:17:19;;;;;;;5.53;3.10;;;18.40;99.90;;;;;;5095327;28;20252;-57
2022/10/23 11:20:27;;;;;;;8.03;3.30;;;18.50;99.90;;;;;;5110464;27;20741;-57
2022/10/23 11:23:29;;;;;;;5.60;3.10;;;18.60;99.90;;;;;;5114830;28;20198;-58
2022/10/23 11:30:01;;;;;;;6.70;3.10;;;18.80;99.90;;;;;;5081819;28;20561;-57
2022/10/23 11:33:26;;;;;;;4.47;3.13;;;18.90;99.90;;;;;;5075714;28;20717;-57
2022/10/23 11:36:04;;;;;;;5.93;2.90;;;19.00;99.90;;;;;;5101230;28;20207;-58
2022/10/23 11:38:40;;;;;;;4.50;3.00;;;19.10;99.90;;;;;;5097035;28;20205;-57
2022/10/23 11:41:20;;;;;;;6.63;3.00;;;19.10;99.90;;;;;;5096335;28;20197;-58
2022/10/23 11:44:02;;;;;;;5.63;2.60;;;19.20;99.90;;;;;;5114937;28;20530;-57
2022/10/23 11:46:59;;;;;;;5.23;2.67;;;19.30;99.90;;;;;;5112273;28;20216;-57
2022/10/23 11:49:32;;;;;;;6.97;2.93;;;19.30;99.90;;;;;;5113131;28;20281;-57
2022/10/23 11:56:05;;;;;;;2.80;2.60;;;19.40;99.90;;;;;;5111967;28;20310;-58
2022/10/23 11:58:45;;;;;;;8.07;2.83;;;19.40;99.90;;;;;;5114861;28;20198;-59
2022/10/23 12:01:55;;;;;;;3.47;2.60;;;19.50;99.90;;;;;;5114723;28;20190;-59
2022/10/23 12:04:28;;;;;;;4.27;2.80;;;19.50;99.90;;;;;;5108571;28;20202;-59
2022/10/23 12:07:00;;;;;;;5.60;2.60;;;19.60;99.90;;;;;;5123434;27;20218;-58
2022/10/23 12:09:41;;;;;;;5.53;2.57;;;19.60;99.90;;;;;;5114715;28;20197;-58
2022/10/23 12:12:48;;;;;;;3.20;2.90;;;19.60;99.90;;;;;;5100423;28;20195;-58
2022/10/23 12:15:23;;;;;;;3.13;2.80;;;19.80;99.90;;;;;;5105064;28;20214;-58
2022/10/23 12:18:33;;;;;;;3.07;2.60;;;19.80;99.90;;;;;;5104172;28;20552;-58
2022/10/23 12:21:18;;;;;;;8.50;2.60;;;19.90;99.90;;;;;;5132202;27;20186;-58
2022/10/23 12:24:23;;;;;;;4.77;2.90;;;19.90;99.90;;;;;;5134790;27;20188;-58
2022/10/23 12:27:20;;;;;;;4.40;3.60;;;20.00;99.90;;;;;;5131785;27;20531;-58
2022/10/23 12:30:01;;;;;;;4.93;2.90;;;20.00;99.90;;;;;;5113638;28;20194;-57
2022/10/23 12:33:06;;;;;;;5.73;2.97;;;20.10;99.90;;;;;;5118648;27;20268;-58
2022/10/23 12:35:53;;;;;;;5.37;2.50;;;20.10;99.90;;;;;;5096208;28;20195;-58
2022/10/23 12:38:30;;;;;;;5.27;2.43;;;20.20;99.90;;;;;;5108119;28;20191;-59
2022/10/23 12:41:12;;;;;;;5.47;2.40;;;20.30;99.90;;;;;;5082975;28;20183;-58
2022/10/23 12:43:43;;;;;;;8.83;2.53;;;20.40;99.90;;;;;;5093543;28;20191;-58
2022/10/23 12:46:30;;;;;;;4.07;2.30;;;20.40;99.90;;;;;;5110028;28;20201;-58
2022/10/23 12:49:02;;;;;;;7.17;2.33;;;20.60;99.90;;;;;;5100980;27;20198;-58
2022/10/23 12:51:56;;;;;;;2.67;2.40;;;20.60;99.90;;;;;;5112920;28;20198;-58
2022/10/23 12:54:38;;;;;;;5.37;2.40;;;20.80;99.90;;;;;;5090765;28;20310;-58
2022/10/23 12:57:29;;;;;;;5.57;2.57;;;20.90;99.90;;;;;;5113129;28;20195;-58
2022/10/23 13:00:01;;;;;;;3.50;2.47;;;20.90;99.90;;;;;;5111824;27;20198;-58
2022/10/23 13:02:31;;;;;;;6.60;2.67;;;21.00;99.90;;;;;;5099406;28;20243;-59
2022/10/23 13:05:27;;;;;;;5.77;2.60;;;21.10;99.90;;;;;;5111127;28;20536;-58
2022/10/23 13:08:23;;;;;;;3.13;2.37;;;21.30;99.90;;;;;;5055016;28;20196;-58
2022/10/23 13:11:33;;;;;;;6.10;2.50;;;21.30;99.90;;;;;;5060232;28;20630;-58
2022/10/23 13:14:12;;;;;;;3.77;2.30;;;21.20;99.90;;;;;;5089648;28;20195;-58
2022/10/23 13:17:01;;;;;;;1.90;1.80;;;21.00;99.90;;;;;;5092121;28;20212;-58
2022/10/23 13:19:55;;;;;;;5.20;2.70;;;21.00;99.90;;;;;;5078998;28;20206;-58
2022/10/23 13:22:24;;;;;;;3.03;2.33;;;21.00;99.90;;;;;;5092531;28;20184;-59
2022/10/23 13:25:44;;;;;;;2.80;2.37;;;20.90;99.90;;;;;;5092455;28;20199;-58
2022/10/23 13:28:24;;;;;;;3.47;2.70;;;20.90;99.90;;;;;;5092409;28;20191;-58
2022/10/23 13:31:21;;;;;;;5.80;2.57;;;20.90;99.90;;;;;;5081119;28;20196;-58
2022/10/23 13:34:03;;;;;;;4.03;2.13;;;20.80;99.90;;;;;;5093165;28;20218;-58
2022/10/23 13:36:34;;;;;;;2.17;2.07;;;20.80;99.90;;;;;;5099557;28;20233;-58
2022/10/23 13:43:48;;;;;;;4.23;2.40;;;20.80;99.90;;;;;;5087451;28;20668;-58
2022/10/23 13:46:20;;;;;;;4.83;2.53;;;20.80;99.90;;;;;;5089604;28;20195;-58
2022/10/23 13:48:49;;;;;;;7.63;2.70;;;20.80;99.90;;;;;;5099584;28;20203;-58
2022/10/23 13:51:57;;;;;;;6.00;2.60;;;20.70;99.90;;;;;;5074045;28;20192;-59
2022/10/23 13:54:30;;;;;;;2.87;2.40;;;20.70;99.90;;;;;;5074622;28;20714;-58
2022/10/23 13:57:41;;;;;;;3.93;2.60;;;20.60;99.90;;;;;;5087949;28;20214;-58
2022/10/23 14:00:16;;;;;;;2.40;2.30;;;20.50;99.90;;;;;;5080219;28;20712;-58
2022/10/23 14:02:48;;;;;;;4.83;2.20;;;20.50;99.90;;;;;;5097308;28;20236;-59
2022/10/23 14:05:19;;;;;;;5.00;2.70;;;20.50;99.90;;;;;;5102035;28;20199;-58
2022/10/23 14:08:29;;;;;;;5.23;2.50;;;20.60;99.90;;;;;;5091805;28;20203;-58
2022/10/23 14:11:25;;;;;;;9.13;2.50;;;20.60;99.90;;;;;;5059161;28;20192;-58
2022/10/23 14:14:14;;;;;;;6.40;2.53;;;20.70;99.90;;;;;;5092740;28;20187;-59
2022/10/23 14:16:43;;;;;;;2.87;2.57;;;20.80;99.90;;;;;;5082773;28;20226;-58
2022/10/23 14:19:12;;;;;;;7.00;2.67;;;20.80;99.90;;;;;;5081831;28;20207;-58
2022/10/23 14:21:47;;;;;;;3.30;2.87;;;20.80;99.90;;;;;;5094455;28;20223;-58
2022/10/23 14:24:55;;;;;;;4.43;2.30;;;20.70;99.90;;;;;;5093096;28;20202;-59
2022/10/23 14:27:26;;;;;;;2.63;2.40;;;20.60;99.90;;;;;;5087045;28;20199;-58
2022/10/23 14:30:36;;;;;;;3.67;2.40;;;20.50;99.90;;;;;;5099739;28;20198;-58
2022/10/23 14:33:07;;;;;;;4.30;2.40;;;20.40;99.90;;;;;;5063458;28;20534;-58
2022/10/23 14:35:42;;;;;;;5.20;2.77;;;20.40;99.90;;;;;;5092142;28;20204;-58
2022/10/23 14:38:10;;;;;;;6.77;2.50;;;20.30;99.90;;;;;;5092332;28;20205;-58
2022/10/23 14:40:57;;;;;;;6.90;2.80;;;20.20;99.90;;;;;;5077347;28;20202;-58
2022/10/23 14:43:54;;;;;;;4.53;2.47;;;20.20;99.90;;;;;;5095405;28;20200;-57
2022/10/23 14:46:42;;;;;;;4.20;2.60;;;20.10;99.90;;;;;;5103765;28;20197;-58
2022/10/23 14:49:41;;;;;;;3.40;2.53;;;20.10;99.90;;;;;;5097892;28;20732;-58
2022/10/23 14:52:32;;;;;;;4.63;2.87;;;20.00;99.90;;;;;;5082096;28;20199;-58
2022/10/23 14:55:05;;;;;;;5.70;2.87;;;20.00;99.90;;;;;;5098364;28;20657;-58
2022/10/23 14:57:37;;;;;;;5.20;2.87;;;19.90;99.90;;;;;;5086874;28;20207;-58
2022/10/23 15:00:07;;;;;;;5.83;2.87;;;19.90;99.90;;;;;;5081853;28;20207;-59
2022/10/23 15:02:36;;;;;;;4.30;2.83;;;19.90;99.90;;;;;;5091172;28;20654;-58
2022/10/23 15:05:41;;;;;;;4.97;2.53;;;19.90;99.90;;;;;;5087959;28;20208;-58
2022/10/23 15:08:11;;;;;;;4.10;2.73;;;19.80;99.90;;;;;;5094407;28;20199;-59
2022/10/23 15:11:00;;;;;;;7.87;2.43;;;19.80;99.90;;;;;;5094320;28;20222;-58
2022/10/23 15:13:33;;;;;;;5.83;2.93;;;19.70;99.90;;;;;;5095084;28;20198;-58
2022/10/23 15:19:54;;;;;;;4.60;2.67;;;19.70;99.90;;;;;;5076379;28;20290;-58
2022/10/23 15:22:24;;;;;;;4.20;3.00;;;19.70;99.90;;;;;;5060448;28;20202;-58
2022/10/23 15:25:15;;;;;;;4.83;2.47;;;19.70;99.90;;;;;;5100390;28;20274;-59
2022/10/23 15:27:50;;;;;;;3.40;2.70;;;19.70;99.90;;;;;;5100055;28;20198;-58
2022/10/23 15:30:18;;;;;;;9.77;3.10;;;19.70;99.90;;;;;;5094669;28;20210;-59
2022/10/23 15:32:48;;;;;;;3.10;2.80;;;19.80;99.90;;;;;;5094776;28;20206;-59
2022/10/23 15:35:35;;;;;;;9.00;3.10;;;19.80;99.90;;;;;;5083683;28;20558;-58
2022/10/23 15:38:29;;;;;;;3.60;3.30;;;19.80;99.90;;;;;;5085835;28;20216;-58
2022/10/23 15:41:22;;;;;;;3.50;3.17;;;19.80;99.90;;;;;;5097493;28;20273;-58
2022/10/23 15:43:51;;;;;;;3.63;2.83;;;19.90;99.90;;;;;;5094662;28;20202;-58
2022/10/23 15:46:57;;;;;;;4.47;2.80;;;19.90;99.90;;;;;;5094367;28;20196;-58
2022/10/23 15:49:29;;;;;;;4.70;3.00;;;19.90;99.90;;;;;;5107508;28;20559;-58
2022/10/23 15:51:58;;;;;;;10.87;3.40;;;19.90;99.90;;;;;;5073105;28;20692;-58
2022/10/23 15:54:28;;;;;;;6.33;4.57;;;19.90;99.90;;;;;;5070493;28;20202;-58
2022/10/23 15:57:03;;;;;;;6.87;4.70;;;19.80;99.90;;;;;;5092705;28;20259;-59
2022/10/23 15:59:36;;;;;;;6.90;5.83;;;19.80;99.90;;;;;;5094008;28;20541;-59
2022/10/23 16:02:23;;;;;;;7.57;5.10;;;19.70;99.90;;;;;;5093944;28;20199;-59
2022/10/23 16:05:12;;;;;;;9.97;5.40;;;19.70;99.90;;;;;;5058156;28;20199;-58
2022/10/23 16:07:40;;;;;;;5.83;3.80;;;19.70;99.90;;;;;;5074196;28;20220;-58
2022/10/23 16:10:42;;;;;;;7.73;5.70;;;19.60;99.90;;;;;;5084859;28;20195;-58
2022/10/23 16:13:48;;;;;;;9.37;4.53;;;19.50;99.90;;;;;;5065659;28;20184;-59
2022/10/23 16:16:45;;;;;;;9.60;5.57;;;19.40;99.90;;;;;;5093043;28;20215;-59
2022/10/23 16:19:33;;;;;;;7.27;4.47;;;19.40;99.90;;;;;;5081116;28;20206;-58
2022/10/23 16:25:39;;;;;;;9.50;4.23;;;19.30;99.90;;;;;;5103099;28;20672;-58
2022/10/23 16:36:25;;;;;;;7.70;4.93;;;19.10;99.90;;;;;;5073496;28;20207;-58
2022/10/23 16:38:55;;;;;;;13.20;10.20;;;19.10;99.90;;;;;;5080878;28;20191;-59
2022/10/23 16:41:23;;;;;;;11.17;4.80;;;19.10;99.90;;;;;;5072698;28;20192;-58
2022/10/23 16:44:11;;;;;;;18.63;8.07;;;19.10;99.90;;;;;;5076875;28;20184;-58
2022/10/23 16:47:05;;;;;;;13.23;4.57;;;19.10;99.90;;;;;;5062360;28;20216;-58
2022/10/23 16:49:37;;;;;;;5.73;4.23;;;19.00;99.90;;;;;;5054985;28;20196;-58
2022/10/23 16:52:11;;;;;;;13.13;9.10;;;19.00;99.90;;;;;;5092134;28;20191;-58
2022/10/23 16:54:59;;;;;;;8.70;6.03;;;19.00;99.90;;;;;;5093472;28;20195;-59
2022/10/23 16:57:34;;;;;;;9.37;4.67;;;19.00;99.90;;;;;;5075273;28;20219;-58
2022/10/23 17:00:04;;;;;;;6.43;4.20;;;19.00;99.90;;;;;;5093217;28;20201;-59
2022/10/23 17:02:37;;;;;;;5.17;3.60;;;19.10;99.90;;;;;;5092992;28;20198;-58
2022/10/23 17:05:43;;;;;;;11.30;5.00;;;19.10;99.90;;;;;;5085062;28;20294;-58
2022/10/23 17:08:14;;;;;;;5.60;3.60;;;19.10;99.90;;;;;;5072913;28;20234;-58
2022/10/23 17:11:05;;;;;;;15.37;7.57;;;19.10;99.90;;;;;;5068752;28;20206;-58
2022/10/23 17:17:29;;;;;;;5.07;3.07;;;19.10;99.90;;;;;;5092784;28;20600;-59
2022/10/23 17:20:38;;;;;;;9.00;5.33;;;19.10;99.90;;;;;;5092440;28;20187;-58
2022/10/23 17:23:08;;;;;;;7.13;3.20;;;19.10;99.90;;;;;;5092482;28;20199;-59
2022/10/23 17:29:27;;;;;;;13.07;4.60;;;19.10;99.90;;;;;;5075032;28;20195;-59
2022/10/23 17:31:58;;;;;;;6.50;3.73;;;19.10;99.90;;;;;;5092381;28;20558;-58
2022/10/23 17:35:06;;;;;;;7.13;3.97;;;19.10;99.90;;;;;;5074066;28;20218;-58
2022/10/23 17:41:17;;;;;;;3.73;3.40;;;19.20;99.90;;;;;;5109137;28;20195;-58
2022/10/23 17:44:24;;;;;;;10.63;4.47;;;19.20;99.90;;;;;;5081536;28;20572;-59
2022/10/23 17:46:54;;;;;;;12.57;3.00;;;19.10;99.90;;;;;;5085018;28;20222;-60
2022/10/23 17:49:25;;;;;;;9.73;3.07;;;17.30;99.90;;;;;;5091697;28;20195;-60
2022/10/23 17:51:55;;;;;;;6.13;2.47;;;16.60;99.90;;;;;;5091112;28;20201;-60
2022/10/23 17:54:25;;;;;;;2.93;1.93;;;16.00;99.90;;;;;;5092552;28;20202;-59
2022/10/23 17:56:54;;;;;;;4.63;1.80;;;15.40;99.90;;;;;;5084993;28;20663;-59
2022/10/23 17:59:23;;;;;;;1.70;1.57;;;14.90;99.90;;;;;;5097408;28;20550;-59
2022/10/23 18:01:51;;;;;;;2.13;1.20;;;14.70;99.90;;;;;;5098266;28;20187;-59
2022/10/23 18:04:21;;;;;;;1.90;1.80;;;14.60;99.90;;;;;;5099260;28;20191;-59
2022/10/23 18:06:52;;;;;;;4.77;2.07;;;14.60;99.90;;;;;;5110948;27;20214;-58
2022/10/23 18:09:21;;;;;;;2.13;1.93;;;14.60;99.90;;;;;;5114871;28;20700;-59
2022/10/23 18:11:50;;;;;;;4.27;2.20;;;14.50;99.90;;;;;;5111958;28;20522;-58
2022/10/23 18:14:20;;;;;;;3.37;2.10;;;14.50;99.90;;;;;;5110279;28;20222;-59
2022/10/23 18:16:49;;;;;;;2.10;2.00;;;14.50;99.90;;;;;;5116640;28;20606;-59
2022/10/23 18:19:19;;;;;;;4.53;3.03;;;14.50;99.90;;;;;;5071238;28;20184;-58
2022/10/23 18:21:48;;;;;;;6.30;2.10;;;14.60;99.90;;;;;;5102826;27;20221;-58
2022/10/23 18:24:17;;;;;;;2.40;1.63;;;14.70;99.90;;;;;;5101758;28;20198;-59
2022/10/23 18:26:46;;;;;;;2.50;1.97;;;14.80;99.90;;;;;;5120797;27;20194;-59
2022/10/23 18:29:17;;;;;;;2.80;2.20;;;14.90;99.90;;;;;;5101447;28;20229;-58
2022/10/23 18:31:46;;;;;;;3.43;2.20;;;14.90;99.90;;;;;;5116405;28;20187;-59